Time;durP1;ratioP1;P1;durP2;ratioP2;P2;SDS_P1;SDS_P2;PMS_P1;PMS_P2;Temp;Humidity;BMP_temperature;BMP_pressure;BME280_temperature;BME280_humidity;BME280_pressure;Samples;Min_cycle;Max_cycle;Signal;HPM_P1;HPM_P2
2022/01/07 00:01:25;;;;;;;16.80;6.43;;;0.50;99.90;;;;;;4991411;28;20252;-71
2022/01/07 00:03:52;;;;;;;15.33;6.67;;;0.40;99.90;;;;;;4989393;28;20197;-71
2022/01/07 00:06:19;;;;;;;14.87;7.03;;;0.30;99.90;;;;;;4983025;28;20213;-73
2022/01/07 00:08:46;;;;;;;16.63;6.90;;;0.30;99.90;;;;;;4991327;28;20218;-71
2022/01/07 00:11:12;;;;;;;18.30;7.70;;;0.40;99.90;;;;;;4991947;28;20205;-71
2022/01/07 00:13:39;;;;;;;17.17;7.73;;;0.40;99.90;;;;;;4988339;28;20200;-75
2022/01/07 00:16:06;;;;;;;18.73;7.53;;;0.50;99.90;;;;;;4987726;28;20229;-71
2022/01/07 00:18:33;;;;;;;21.80;7.30;;;0.50;99.90;;;;;;4980765;28;20682;-72
2022/01/07 00:20:59;;;;;;;15.60;6.80;;;0.60;99.90;;;;;;4990767;28;20214;-71
2022/01/07 00:23:26;;;;;;;15.23;6.73;;;0.50;99.90;;;;;;4989524;28;20268;-72
2022/01/07 00:25:53;;;;;;;15.93;6.47;;;0.40;99.90;;;;;;4990688;28;21028;-71
2022/01/07 00:28:19;;;;;;;13.73;7.33;;;0.40;99.90;;;;;;4988790;28;20214;-72
2022/01/07 00:30:46;;;;;;;19.13;6.57;;;0.40;99.90;;;;;;4988471;28;20205;-71
2022/01/07 00:33:14;;;;;;;21.90;7.60;;;0.40;99.90;;;;;;4981226;28;20283;-74
2022/01/07 00:35:41;;;;;;;18.07;7.87;;;0.50;99.90;;;;;;4988035;28;20229;-72
2022/01/07 00:38:08;;;;;;;14.80;6.67;;;0.40;99.90;;;;;;4990283;28;20208;-72
2022/01/07 00:40:35;;;;;;;14.43;5.97;;;0.40;99.90;;;;;;4990701;28;20558;-71
2022/01/07 00:43:02;;;;;;;15.30;6.77;;;0.30;99.90;;;;;;4984407;28;20212;-72
2022/01/07 00:45:28;;;;;;;17.30;6.50;;;0.40;99.90;;;;;;4990543;28;20231;-71
2022/01/07 00:47:56;;;;;;;15.87;6.83;;;0.30;99.90;;;;;;4989111;28;20706;-71
2022/01/07 00:50:26;;;;;;;16.00;6.70;;;0.40;99.90;;;;;;4984554;28;20249;-71
2022/01/07 00:52:53;;;;;;;17.90;6.77;;;0.40;99.90;;;;;;4987734;28;20662;-71
2022/01/07 00:55:20;;;;;;;20.47;7.70;;;0.40;99.90;;;;;;4989965;28;20229;-71
2022/01/07 00:57:47;;;;;;;15.80;6.67;;;0.50;99.90;;;;;;4976232;28;20684;-72
2022/01/07 01:00:17;;;;;;;17.77;7.73;;;0.60;99.90;;;;;;4987978;28;20630;-71
2022/01/07 01:02:44;;;;;;;21.43;8.33;;;0.60;99.90;;;;;;4987735;28;20259;-72
2022/01/07 01:05:12;;;;;;;18.47;7.50;;;0.80;99.90;;;;;;4984719;28;20233;-72
2022/01/07 01:07:40;;;;;;;16.70;7.13;;;0.90;99.90;;;;;;4989519;28;20197;-71
2022/01/07 01:10:08;;;;;;;21.13;7.70;;;0.90;99.90;;;;;;4988180;28;20193;-74
2022/01/07 01:12:38;;;;;;;17.83;7.20;;;0.80;99.90;;;;;;4989754;28;20205;-72
2022/01/07 01:15:07;;;;;;;15.83;7.10;;;0.90;99.90;;;;;;4988047;28;20220;-73
2022/01/07 01:17:34;;;;;;;13.87;6.70;;;0.80;99.90;;;;;;4991774;28;20200;-71
2022/01/07 01:20:02;;;;;;;21.37;7.80;;;0.80;99.90;;;;;;4987107;28;20277;-75
2022/01/07 01:22:29;;;;;;;18.67;7.10;;;1.00;99.90;;;;;;4987552;28;20195;-74
2022/01/07 01:24:55;;;;;;;13.47;6.97;;;1.10;99.90;;;;;;4989425;28;20214;-71
2022/01/07 01:27:22;;;;;;;16.67;6.53;;;0.90;99.90;;;;;;4989403;28;20215;-75
2022/01/07 01:29:49;;;;;;;13.77;6.53;;;0.80;99.90;;;;;;4989347;28;20312;-71
2022/01/07 01:32:16;;;;;;;16.13;7.17;;;0.80;99.90;;;;;;4983599;28;20706;-71
2022/01/07 01:34:43;;;;;;;14.43;6.90;;;0.90;99.90;;;;;;4988215;28;20214;-73
2022/01/07 01:37:10;;;;;;;17.60;7.50;;;0.70;99.90;;;;;;4987062;28;20244;-71
2022/01/07 01:39:36;;;;;;;17.30;6.57;;;0.80;99.90;;;;;;4981862;28;20202;-71
2022/01/07 01:42:04;;;;;;;14.60;6.77;;;0.70;99.90;;;;;;4987264;28;20207;-71
2022/01/07 01:44:31;;;;;;;20.73;7.40;;;0.80;99.90;;;;;;4987215;28;20214;-69
2022/01/07 01:46:58;;;;;;;15.83;6.87;;;1.00;99.90;;;;;;4987649;28;20222;-73
2022/01/07 01:49:25;;;;;;;17.77;7.57;;;0.90;99.90;;;;;;4974935;28;20198;-71
2022/01/07 01:51:52;;;;;;;18.50;7.40;;;0.80;99.90;;;;;;4985329;28;20679;-73
2022/01/07 01:54:19;;;;;;;18.13;7.03;;;0.70;99.90;;;;;;4988238;28;20218;-72
2022/01/07 01:56:45;;;;;;;13.90;6.40;;;0.70;99.90;;;;;;4987441;28;20319;-71
2022/01/07 01:59:13;;;;;;;14.13;6.90;;;0.70;99.90;;;;;;4979946;28;20203;-74
2022/01/07 02:01:40;;;;;;;16.83;7.70;;;0.70;99.90;;;;;;4989429;28;20202;-73
2022/01/07 02:04:07;;;;;;;16.73;7.27;;;0.70;99.90;;;;;;4985372;28;20798;-71
2022/01/07 02:06:35;;;;;;;20.93;7.17;;;0.80;99.90;;;;;;4986977;28;20220;-74
2022/01/07 02:09:02;;;;;;;17.27;8.23;;;0.90;99.90;;;;;;4982997;28;20190;-73
2022/01/07 02:11:31;;;;;;;18.17;7.83;;;0.90;99.90;;;;;;4988479;28;20253;-72
2022/01/07 02:13:57;;;;;;;20.30;8.00;;;1.00;99.90;;;;;;4986769;28;20205;-72
2022/01/07 02:16:27;;;;;;;14.33;7.17;;;1.10;99.90;;;;;;4984251;28;20193;-75
2022/01/07 02:18:55;;;;;;;19.03;7.27;;;1.00;99.90;;;;;;4985827;28;20258;-72
2022/01/07 02:21:22;;;;;;;20.00;7.20;;;0.90;99.90;;;;;;4990437;28;20474;-71
2022/01/07 02:23:48;;;;;;;22.17;7.43;;;0.90;99.90;;;;;;4986729;28;20203;-73
2022/01/07 02:26:17;;;;;;;21.47;7.93;;;1.00;99.90;;;;;;4985313;28;20221;-72
2022/01/07 02:28:45;;;;;;;17.57;7.97;;;1.00;99.90;;;;;;4981636;28;20209;-73
2022/01/07 02:31:12;;;;;;;18.23;7.60;;;1.10;99.90;;;;;;4980700;28;20198;-73
2022/01/07 02:33:39;;;;;;;17.53;6.97;;;1.10;99.90;;;;;;4985108;28;20651;-72
2022/01/07 02:36:07;;;;;;;15.20;7.00;;;1.00;99.90;;;;;;4987388;28;20223;-71
2022/01/07 02:38:35;;;;;;;17.43;7.67;;;0.90;99.90;;;;;;4982742;28;20275;-72
2022/01/07 02:41:02;;;;;;;17.23;7.80;;;0.80;99.90;;;;;;4988810;28;20690;-72
2022/01/07 02:43:29;;;;;;;15.67;7.57;;;0.80;99.90;;;;;;4989253;28;20268;-72
2022/01/07 02:45:57;;;;;;;19.50;8.23;;;0.80;99.90;;;;;;4980452;28;20223;-70
2022/01/07 02:48:24;;;;;;;25.83;8.37;;;0.90;99.90;;;;;;4985760;28;20257;-72
2022/01/07 02:50:51;;;;;;;21.33;7.93;;;1.10;99.90;;;;;;4978789;28;20189;-72
2022/01/07 02:53:17;;;;;;;19.60;8.13;;;1.10;99.90;;;;;;4986566;28;20189;-74
2022/01/07 02:55:45;;;;;;;20.47;7.73;;;1.20;99.90;;;;;;4984910;28;20218;-74
2022/01/07 02:58:11;;;;;;;18.60;8.07;;;1.10;99.90;;;;;;4981128;28;20306;-74
2022/01/07 03:00:38;;;;;;;19.07;8.10;;;1.20;99.90;;;;;;4982411;28;20202;-74
2022/01/07 03:03:07;;;;;;;19.90;7.47;;;1.30;99.90;;;;;;4988749;28;20205;-71
2022/01/07 03:05:34;;;;;;;17.50;7.70;;;1.40;99.90;;;;;;4981960;28;20264;-71
2022/01/07 03:08:00;;;;;;;25.83;8.23;;;1.40;99.90;;;;;;4986910;28;20203;-75
2022/01/07 03:10:32;;;;;;;15.30;8.43;;;1.40;99.90;;;;;;4987295;28;20586;-71
2022/01/07 03:13:00;;;;;;;15.43;7.67;;;1.50;99.90;;;;;;4985500;28;20202;-72
2022/01/07 03:15:28;;;;;;;18.23;6.90;;;1.30;99.90;;;;;;4981714;28;20232;-72
2022/01/07 03:17:55;;;;;;;20.40;8.23;;;1.20;99.90;;;;;;4987454;28;20230;-71
2022/01/07 03:20:22;;;;;;;17.53;7.53;;;1.30;99.90;;;;;;4987518;28;20600;-70
2022/01/07 03:22:49;;;;;;;18.03;7.27;;;1.30;99.90;;;;;;4986952;28;20678;-72
2022/01/07 03:25:17;;;;;;;17.90;7.63;;;1.30;99.90;;;;;;4988333;28;20770;-73
2022/01/07 03:27:44;;;;;;;20.57;8.13;;;1.20;99.90;;;;;;4985785;28;20230;-72
2022/01/07 03:30:14;;;;;;;17.47;8.07;;;1.30;99.90;;;;;;4990248;28;20202;-69
2022/01/07 03:32:41;;;;;;;20.27;8.27;;;1.40;99.90;;;;;;4989043;28;20200;-71
2022/01/07 03:35:12;;;;;;;16.37;7.80;;;1.40;99.90;;;;;;4988514;28;20262;-72
2022/01/07 03:37:40;;;;;;;20.50;7.30;;;1.30;99.90;;;;;;4986415;28;20200;-74
2022/01/07 03:40:09;;;;;;;19.47;7.90;;;1.30;99.90;;;;;;4989534;28;20203;-72
2022/01/07 03:42:35;;;;;;;18.13;7.67;;;1.30;99.90;;;;;;4986538;28;20208;-72
2022/01/07 03:45:04;;;;;;;16.40;7.50;;;1.30;99.90;;;;;;4992503;28;20267;-72
2022/01/07 03:47:31;;;;;;;15.03;7.93;;;1.40;99.90;;;;;;4987328;28;20274;-75
2022/01/07 03:49:58;;;;;;;15.50;7.70;;;1.50;99.90;;;;;;4991946;28;20211;-72
2022/01/07 03:52:24;;;;;;;15.40;7.40;;;1.40;99.90;;;;;;4989516;28;20246;-73
2022/01/07 03:54:51;;;;;;;18.43;8.47;;;1.20;99.90;;;;;;4988039;28;20221;-72
2022/01/07 03:57:19;;;;;;;16.47;7.37;;;1.10;99.90;;;;;;4984832;28;20220;-74
2022/01/07 03:59:47;;;;;;;15.27;7.40;;;1.00;99.90;;;;;;4989964;28;20203;-72
2022/01/07 04:02:14;;;;;;;17.20;7.40;;;1.10;99.90;;;;;;4986536;28;20222;-72
2022/01/07 04:04:41;;;;;;;20.87;7.57;;;1.20;99.90;;;;;;4990963;28;20233;-72
2022/01/07 04:07:08;;;;;;;18.77;7.83;;;1.20;99.90;;;;;;4984780;28;20733;-73
2022/01/07 04:09:35;;;;;;;17.40;8.33;;;1.10;99.90;;;;;;4985956;28;20197;-74
2022/01/07 04:12:03;;;;;;;16.73;7.80;;;1.00;99.90;;;;;;4984084;28;20241;-70
2022/01/07 04:14:30;;;;;;;16.30;7.33;;;1.00;99.90;;;;;;4983739;28;20366;-73
2022/01/07 04:16:56;;;;;;;18.53;8.00;;;1.00;99.90;;;;;;4988249;28;20208;-72
2022/01/07 04:19:23;;;;;;;18.77;7.73;;;1.00;99.90;;;;;;4987318;28;20199;-75
2022/01/07 04:21:51;;;;;;;14.03;7.30;;;1.30;99.90;;;;;;4985985;28;20215;-74
2022/01/07 04:24:18;;;;;;;13.43;7.33;;;1.30;99.90;;;;;;4991310;28;20228;-74
2022/01/07 04:26:45;;;;;;;16.93;7.10;;;1.30;99.90;;;;;;4986503;28;20218;-72
2022/01/07 04:29:12;;;;;;;17.57;7.93;;;1.30;99.90;;;;;;4982526;28;20230;-75
2022/01/07 04:31:38;;;;;;;17.60;7.70;;;1.30;99.90;;;;;;4989838;28;20191;-72
2022/01/07 04:34:05;;;;;;;23.73;8.20;;;1.30;99.90;;;;;;4983797;28;20647;-72
2022/01/07 04:36:32;;;;;;;13.87;7.23;;;1.30;99.90;;;;;;4988145;28;20655;-75
2022/01/07 04:38:59;;;;;;;18.83;7.30;;;1.40;99.90;;;;;;4987791;28;20233;-73
2022/01/07 04:41:25;;;;;;;17.63;7.27;;;1.40;99.90;;;;;;4983048;28;20203;-72
2022/01/07 04:43:52;;;;;;;18.70;7.73;;;1.50;99.90;;;;;;4988041;28;20593;-72
2022/01/07 04:46:19;;;;;;;17.40;6.97;;;1.50;99.90;;;;;;4987479;28;20216;-72
2022/01/07 04:48:46;;;;;;;17.37;7.03;;;1.50;99.90;;;;;;4987548;28;21406;-72
2022/01/07 04:51:12;;;;;;;16.87;7.43;;;1.60;99.90;;;;;;4987528;28;20192;-72
2022/01/07 04:53:39;;;;;;;20.27;7.57;;;1.70;99.90;;;;;;4989218;28;20197;-72
2022/01/07 04:56:06;;;;;;;18.17;7.83;;;1.70;99.90;;;;;;4989917;28;20215;-75
2022/01/07 04:58:32;;;;;;;15.67;7.87;;;1.70;99.90;;;;;;4984703;28;20221;-72
2022/01/07 05:00:59;;;;;;;15.67;7.73;;;1.80;99.90;;;;;;4987809;28;20204;-73
2022/01/07 05:03:26;;;;;;;15.00;7.03;;;1.80;99.90;;;;;;4988625;28;20671;-74
2022/01/07 05:06:03;;;;;;;21.50;7.53;;;1.80;99.90;;;;;;4989151;28;21016;-75
2022/01/07 05:08:29;;;;;;;16.23;7.20;;;1.90;99.90;;;;;;4987448;28;20199;-73
2022/01/07 05:10:56;;;;;;;16.00;6.87;;;2.00;99.90;;;;;;4988615;28;20584;-72
2022/01/07 05:13:22;;;;;;;16.00;7.07;;;1.90;99.90;;;;;;4986221;28;20929;-72
2022/01/07 05:15:49;;;;;;;16.60;6.47;;;1.80;99.90;;;;;;4989025;28;20213;-74
2022/01/07 05:18:16;;;;;;;17.23;6.13;;;1.90;99.90;;;;;;4986312;28;20197;-72
2022/01/07 05:20:43;;;;;;;15.20;6.77;;;1.90;99.90;;;;;;4988281;28;20211;-72
2022/01/07 05:23:09;;;;;;;11.20;5.73;;;1.90;99.90;;;;;;4991391;28;20208;-75
2022/01/07 05:25:36;;;;;;;18.27;6.10;;;2.00;99.90;;;;;;4989942;28;20231;-73
2022/01/07 05:28:05;;;;;;;17.63;5.70;;;2.10;99.90;;;;;;4987323;28;20221;-72
2022/01/07 05:30:33;;;;;;;11.43;6.10;;;2.20;99.90;;;;;;5003365;28;20193;-75
2022/01/07 05:32:59;;;;;;;13.63;5.77;;;2.20;99.90;;;;;;4987306;28;20695;-74
2022/01/07 05:35:28;;;;;;;11.80;5.40;;;2.20;99.90;;;;;;4978897;28;20214;-74
2022/01/07 05:37:55;;;;;;;10.13;5.33;;;2.30;99.90;;;;;;4986071;28;20201;-72
2022/01/07 05:40:22;;;;;;;13.47;5.40;;;2.30;99.90;;;;;;4990414;28;20208;-72
2022/01/07 05:42:48;;;;;;;15.17;5.20;;;2.30;99.90;;;;;;4988243;28;20223;-72
2022/01/07 05:45:15;;;;;;;11.83;5.73;;;2.40;99.90;;;;;;4985401;28;20590;-74
2022/01/07 05:47:41;;;;;;;11.10;5.27;;;2.50;99.90;;;;;;4986704;28;20217;-72
2022/01/07 05:50:09;;;;;;;13.03;5.70;;;2.50;99.90;;;;;;4986190;28;20252;-75
2022/01/07 05:52:36;;;;;;;10.93;5.20;;;2.50;99.90;;;;;;4983475;28;20673;-72
2022/01/07 05:55:04;;;;;;;15.70;4.93;;;2.50;99.90;;;;;;4983983;28;20632;-74
2022/01/07 05:57:31;;;;;;;13.17;4.53;;;2.50;99.90;;;;;;4989369;28;20202;-74
2022/01/07 05:59:58;;;;;;;12.83;4.50;;;2.50;99.90;;;;;;4985057;28;20204;-75
2022/01/07 06:02:25;;;;;;;9.47;5.20;;;2.50;99.90;;;;;;4987753;28;20704;-72
2022/01/07 06:04:52;;;;;;;10.67;5.03;;;2.60;99.90;;;;;;4987723;28;20687;-72
2022/01/07 06:07:20;;;;;;;9.23;4.70;;;2.60;99.90;;;;;;4984915;28;20768;-74
2022/01/07 06:09:47;;;;;;;11.40;4.77;;;2.60;99.90;;;;;;4983549;28;20777;-72
2022/01/07 06:12:13;;;;;;;11.53;4.90;;;2.60;99.90;;;;;;4988644;28;20199;-72
2022/01/07 06:14:40;;;;;;;10.97;4.40;;;2.70;99.90;;;;;;4983075;28;20220;-73
2022/01/07 06:17:10;;;;;;;15.43;5.37;;;2.80;99.90;;;;;;4985121;28;20231;-72
2022/01/07 06:19:37;;;;;;;11.80;4.67;;;2.80;99.90;;;;;;4987471;28;20687;-72
2022/01/07 06:22:08;;;;;;;10.33;4.70;;;2.80;99.90;;;;;;4986671;28;20211;-70
2022/01/07 06:24:34;;;;;;;14.47;5.00;;;2.90;99.90;;;;;;4988370;28;20216;-72
2022/01/07 06:27:01;;;;;;;11.03;4.43;;;2.80;99.90;;;;;;4981173;28;20228;-73
2022/01/07 06:29:28;;;;;;;15.30;4.87;;;2.90;99.90;;;;;;4982745;28;20614;-72
2022/01/07 06:31:54;;;;;;;14.27;5.57;;;2.90;99.90;;;;;;4984986;28;20196;-74
2022/01/07 06:34:21;;;;;;;9.40;5.00;;;3.00;99.90;;;;;;4988289;28;20789;-71
2022/01/07 06:36:48;;;;;;;10.27;4.97;;;3.10;99.90;;;;;;4978227;28;20217;-73
2022/01/07 06:39:16;;;;;;;9.63;4.97;;;3.10;99.90;;;;;;4981357;28;20205;-72
2022/01/07 06:41:42;;;;;;;10.13;4.77;;;3.10;99.90;;;;;;4986774;28;20188;-72
2022/01/07 06:44:09;;;;;;;12.20;5.27;;;3.10;99.90;;;;;;4983489;28;20205;-72
2022/01/07 06:46:36;;;;;;;7.93;4.50;;;3.20;99.90;;;;;;4982927;28;20251;-74
2022/01/07 06:49:02;;;;;;;9.10;4.50;;;3.30;99.90;;;;;;4977775;28;20196;-72
2022/01/07 06:51:29;;;;;;;8.83;4.00;;;3.30;99.90;;;;;;4988093;28;20190;-74
2022/01/07 06:53:56;;;;;;;11.60;5.47;;;3.30;99.90;;;;;;4987024;28;20259;-75
2022/01/07 06:56:22;;;;;;;10.13;4.90;;;3.30;99.90;;;;;;4984214;28;20200;-70
2022/01/07 06:58:49;;;;;;;13.57;5.20;;;3.30;99.90;;;;;;4987567;28;20263;-71
2022/01/07 07:01:16;;;;;;;11.77;5.20;;;3.20;99.90;;;;;;4986099;28;20193;-68
2022/01/07 07:03:43;;;;;;;11.83;5.43;;;3.10;99.90;;;;;;4982420;28;20208;-68
2022/01/07 07:06:12;;;;;;;12.93;5.50;;;3.10;99.90;;;;;;5001309;28;20454;-68
2022/01/07 07:08:41;;;;;;;11.83;5.43;;;3.10;99.90;;;;;;4995069;28;20223;-68
2022/01/07 07:11:07;;;;;;;14.20;5.63;;;3.00;99.90;;;;;;4987360;28;20257;-68
2022/01/07 07:13:34;;;;;;;14.33;5.87;;;3.00;99.90;;;;;;4995294;28;20754;-67
2022/01/07 07:16:01;;;;;;;17.53;6.70;;;3.00;99.90;;;;;;4992846;28;20224;-68
2022/01/07 07:18:28;;;;;;;14.70;6.37;;;3.00;99.90;;;;;;4993284;28;20224;-67
2022/01/07 07:20:54;;;;;;;13.73;6.67;;;3.10;99.90;;;;;;4993052;28;20204;-68
2022/01/07 07:23:21;;;;;;;14.37;6.63;;;3.10;99.90;;;;;;4991628;28;20224;-68
2022/01/07 07:25:47;;;;;;;13.30;6.90;;;3.00;99.90;;;;;;4990306;28;20220;-67
2022/01/07 07:28:14;;;;;;;15.30;7.27;;;3.10;99.90;;;;;;4989626;28;20225;-67
2022/01/07 07:30:42;;;;;;;16.23;7.07;;;2.90;99.90;;;;;;4990812;28;20731;-70
2022/01/07 07:38:30;;;;;;;15.57;7.80;;;3.00;99.90;;;;;;4991459;28;20211;-67
2022/01/07 07:40:56;;;;;;;16.57;8.17;;;2.80;99.90;;;;;;4988928;28;20212;-68
2022/01/07 07:43:23;;;;;;;19.00;8.63;;;2.80;99.90;;;;;;4988707;28;20203;-67
2022/01/07 07:45:49;;;;;;;20.63;9.40;;;2.80;99.90;;;;;;4990270;28;20227;-67
2022/01/07 07:48:16;;;;;;;17.87;9.23;;;2.80;99.90;;;;;;4983536;28;21514;-67
2022/01/07 07:50:43;;;;;;;22.93;9.83;;;2.80;99.90;;;;;;4987887;28;20196;-71
2022/01/07 07:53:09;;;;;;;20.37;10.30;;;2.90;99.90;;;;;;4989456;28;20205;-67
2022/01/07 07:55:36;;;;;;;20.67;10.07;;;2.90;99.90;;;;;;4987982;28;20213;-69
2022/01/07 07:58:03;;;;;;;19.50;9.53;;;2.90;99.90;;;;;;4989522;28;20230;-67
2022/01/07 08:00:31;;;;;;;21.13;10.03;;;2.90;99.90;;;;;;4991949;28;20396;-67
2022/01/07 08:02:58;;;;;;;17.67;8.73;;;2.90;99.90;;;;;;4991637;28;20334;-68
2022/01/07 08:05:25;;;;;;;18.43;9.40;;;2.90;99.90;;;;;;4992621;28;20223;-68
2022/01/07 08:07:52;;;;;;;18.43;9.33;;;2.90;99.90;;;;;;4989384;28;20661;-70
2022/01/07 08:10:23;;;;;;;17.40;9.53;;;3.00;99.90;;;;;;4990836;28;20553;-69
2022/01/07 08:13:14;;;;;;;15.50;8.47;;;3.00;99.90;;;;;;4985779;28;20236;-67
2022/01/07 08:16:00;;;;;;;22.90;9.63;;;2.90;99.90;;;;;;4987064;28;20229;-67
2022/01/07 08:18:31;;;;;;;18.77;8.77;;;3.00;99.90;;;;;;4988993;28;20204;-69
2022/01/07 08:21:03;;;;;;;15.60;8.50;;;3.00;99.90;;;;;;4987722;28;20209;-67
2022/01/07 08:23:35;;;;;;;16.30;7.90;;;2.90;99.90;;;;;;4983218;28;20209;-67
2022/01/07 08:26:07;;;;;;;16.87;8.10;;;3.00;99.90;;;;;;4986879;28;20322;-67
2022/01/07 08:28:43;;;;;;;17.73;8.43;;;3.00;99.90;;;;;;4987763;28;20700;-68
2022/01/07 08:36:29;;;;;;;17.13;7.27;;;3.00;99.90;;;;;;4991281;28;20200;-68
2022/01/07 08:38:57;;;;;;;15.67;7.70;;;3.00;99.90;;;;;;4991361;28;20192;-70
2022/01/07 08:41:26;;;;;;;14.77;7.47;;;3.10;99.90;;;;;;4987275;28;20255;-68
2022/01/07 08:43:53;;;;;;;19.13;7.60;;;3.00;99.90;;;;;;4978791;28;20251;-68
2022/01/07 08:46:19;;;;;;;19.23;7.90;;;3.00;99.90;;;;;;4987359;28;20203;-69
2022/01/07 08:48:46;;;;;;;14.47;7.73;;;3.10;99.90;;;;;;4985664;28;20225;-65
2022/01/07 08:51:13;;;;;;;14.23;6.87;;;3.10;99.90;;;;;;4987572;28;20686;-68
2022/01/07 08:53:40;;;;;;;14.40;7.63;;;3.20;99.90;;;;;;4989972;28;20189;-68
2022/01/07 08:56:08;;;;;;;16.57;8.13;;;3.20;99.90;;;;;;4988511;28;20256;-68
2022/01/07 08:58:35;;;;;;;18.63;7.60;;;3.30;99.90;;;;;;4982887;28;20256;-68
2022/01/07 09:01:02;;;;;;;13.00;7.17;;;3.30;99.90;;;;;;4985523;28;20202;-68
2022/01/07 09:03:29;;;;;;;17.73;8.23;;;3.30;99.90;;;;;;4989753;28;20251;-69
2022/01/07 09:05:56;;;;;;;15.83;6.93;;;3.30;99.90;;;;;;4990898;28;20281;-68
2022/01/07 09:08:23;;;;;;;15.57;7.50;;;3.40;99.90;;;;;;4988801;28;20229;-68
2022/01/07 09:10:49;;;;;;;14.43;7.67;;;3.40;99.90;;;;;;4987181;28;20193;-70
2022/01/07 09:13:16;;;;;;;15.03;7.63;;;3.40;99.90;;;;;;4993582;28;20206;-70
2022/01/07 09:15:43;;;;;;;13.83;6.90;;;3.40;99.90;;;;;;4988055;28;20223;-69
2022/01/07 09:18:10;;;;;;;13.60;6.10;;;3.30;99.90;;;;;;4983881;28;20208;-68
2022/01/07 09:20:38;;;;;;;17.43;6.13;;;3.30;99.90;;;;;;4989531;28;20192;-69
2022/01/07 09:23:05;;;;;;;15.63;6.83;;;3.40;99.90;;;;;;4986921;28;20577;-72
2022/01/07 09:25:32;;;;;;;11.57;6.53;;;3.40;99.90;;;;;;4988448;28;20224;-68
2022/01/07 09:27:59;;;;;;;8.97;5.57;;;3.50;99.90;;;;;;4988264;28;20224;-71
2022/01/07 09:30:26;;;;;;;12.07;5.60;;;3.60;99.90;;;;;;4985762;28;20588;-69
2022/01/07 09:32:53;;;;;;;9.93;5.23;;;3.60;99.90;;;;;;4987024;28;20196;-68
2022/01/07 09:35:20;;;;;;;10.57;5.53;;;3.60;99.90;;;;;;4984980;28;20217;-69
2022/01/07 09:37:46;;;;;;;11.70;5.23;;;3.60;99.90;;;;;;4990558;28;20201;-68
2022/01/07 09:40:13;;;;;;;9.73;5.17;;;3.70;99.90;;;;;;4987285;28;20203;-69
2022/01/07 09:42:53;;;;;;;12.17;5.17;;;3.70;99.90;;;;;;4984449;28;20674;-70
2022/01/07 09:45:20;;;;;;;9.53;5.00;;;3.80;99.90;;;;;;4984524;28;20224;-68
2022/01/07 09:47:47;;;;;;;9.50;4.70;;;3.80;99.90;;;;;;4976888;28;20217;-68
2022/01/07 09:50:14;;;;;;;9.73;4.20;;;3.90;99.90;;;;;;4984796;28;20198;-68
2022/01/07 09:52:40;;;;;;;10.20;4.33;;;3.90;99.90;;;;;;4986712;28;20190;-71
2022/01/07 09:55:08;;;;;;;9.77;4.90;;;4.00;99.90;;;;;;4987589;28;20210;-68
2022/01/07 09:57:34;;;;;;;9.33;5.07;;;4.10;99.90;;;;;;4988099;28;20201;-70
2022/01/07 10:00:02;;;;;;;10.37;4.70;;;4.20;99.90;;;;;;4987002;28;20248;-69
2022/01/07 10:02:29;;;;;;;10.73;4.80;;;4.30;99.90;;;;;;4986935;28;20210;-69
2022/01/07 10:04:56;;;;;;;10.27;4.17;;;4.40;99.90;;;;;;4988943;28;20221;-69
2022/01/07 10:07:26;;;;;;;7.30;3.87;;;4.50;99.90;;;;;;4989812;28;20251;-67
2022/01/07 10:10:05;;;;;;;6.67;4.03;;;4.60;99.90;;;;;;4988588;28;20204;-69
2022/01/07 10:12:53;;;;;;;7.20;3.90;;;4.60;99.90;;;;;;4989605;28;20706;-69
2022/01/07 10:15:26;;;;;;;8.60;3.93;;;4.60;99.90;;;;;;4989400;28;20645;-71
2022/01/07 10:17:56;;;;;;;6.90;3.63;;;4.70;99.90;;;;;;4985177;28;20197;-68
2022/01/07 10:20:40;;;;;;;8.80;3.97;;;4.60;99.90;;;;;;4989119;28;20669;-70
2022/01/07 10:23:10;;;;;;;8.07;3.97;;;4.40;99.90;;;;;;4986290;28;20208;-71
2022/01/07 10:25:40;;;;;;;6.30;3.57;;;4.40;99.90;;;;;;4998316;28;20272;-71
2022/01/07 10:28:10;;;;;;;7.97;4.10;;;4.50;99.90;;;;;;4980740;28;20570;-72
2022/01/07 10:30:51;;;;;;;5.90;3.50;;;4.40;99.90;;;;;;4984579;28;20682;-72
2022/01/07 10:33:31;;;;;;;7.93;4.03;;;4.40;99.90;;;;;;4989967;28;20221;-70
2022/01/07 10:36:18;;;;;;;8.83;3.83;;;4.40;99.90;;;;;;4989899;28;20228;-69
2022/01/07 10:38:51;;;;;;;6.73;3.30;;;4.50;99.90;;;;;;4990200;28;20203;-69
2022/01/07 10:41:18;;;;;;;10.17;3.63;;;4.50;99.90;;;;;;4990252;28;20213;-71
2022/01/07 10:43:45;;;;;;;6.53;3.80;;;4.60;99.90;;;;;;4990907;28;20200;-70
2022/01/07 10:46:27;;;;;;;7.17;3.83;;;4.50;99.90;;;;;;4984283;28;20217;-71
2022/01/07 10:48:56;;;;;;;9.17;3.60;;;4.50;99.90;;;;;;4987791;28;20222;-69
2022/01/07 10:51:27;;;;;;;6.30;3.43;;;4.50;99.90;;;;;;4987995;28;20215;-70
2022/01/07 10:53:59;;;;;;;9.10;3.50;;;4.60;99.90;;;;;;4986290;28;20224;-70
2022/01/07 10:56:32;;;;;;;5.40;3.30;;;4.60;99.90;;;;;;4984338;28;20670;-67
2022/01/07 10:59:00;;;;;;;7.87;3.50;;;4.50;99.90;;;;;;4987747;28;20659;-72
2022/01/07 11:01:33;;;;;;;10.67;3.50;;;4.50;99.90;;;;;;4984244;28;20201;-73
2022/01/07 11:04:04;;;;;;;4.93;3.20;;;4.60;99.90;;;;;;4984080;28;20937;-69
2022/01/07 11:06:31;;;;;;;7.00;3.30;;;4.60;99.90;;;;;;4985769;28;20290;-70
2022/01/07 11:08:59;;;;;;;10.53;3.67;;;4.70;99.90;;;;;;4989501;28;20584;-69
2022/01/07 11:11:29;;;;;;;5.77;3.27;;;4.80;99.90;;;;;;4987474;28;20195;-72
2022/01/07 11:14:07;;;;;;;6.13;3.33;;;4.90;99.90;;;;;;4982187;28;20677;-69
2022/01/07 11:16:36;;;;;;;5.23;3.33;;;5.00;99.90;;;;;;4985131;28;20216;-70
2022/01/07 11:19:06;;;;;;;4.97;3.30;;;5.00;99.90;;;;;;4986906;28;20572;-71
2022/01/07 11:21:34;;;;;;;4.60;3.13;;;5.10;99.90;;;;;;4986878;28;20249;-67
2022/01/07 11:24:38;;;;;;;6.87;3.67;;;5.00;99.90;;;;;;4988820;28;20287;-70
2022/01/07 11:27:14;;;;;;;5.93;3.10;;;5.10;99.90;;;;;;5000536;28;20667;-69
2022/01/07 11:29:46;;;;;;;4.53;3.20;;;5.10;99.90;;;;;;4990795;28;20226;-69
2022/01/07 11:32:25;;;;;;;5.43;3.53;;;5.00;99.90;;;;;;4990438;28;20696;-71
2022/01/07 11:35:21;;;;;;;7.60;3.57;;;4.90;99.90;;;;;;4988006;28;20753;-70
2022/01/07 11:37:55;;;;;;;7.13;3.67;;;4.90;99.90;;;;;;4987056;28;20212;-70
2022/01/07 11:40:31;;;;;;;5.87;2.97;;;5.00;99.90;;;;;;4987955;28;20199;-70
2022/01/07 11:43:06;;;;;;;4.90;3.20;;;5.10;99.90;;;;;;4987339;28;20315;-71
2022/01/07 11:45:35;;;;;;;6.40;2.97;;;5.00;99.90;;;;;;4988422;28;20362;-70
2022/01/07 11:48:11;;;;;;;4.80;2.90;;;5.10;99.90;;;;;;4988164;28;20247;-69
2022/01/07 11:50:55;;;;;;;5.57;3.10;;;5.00;99.90;;;;;;4989019;28;20204;-72
2022/01/07 11:53:23;;;;;;;5.23;2.73;;;5.00;99.90;;;;;;4991255;28;20585;-70
2022/01/07 11:55:57;;;;;;;7.17;3.13;;;5.10;99.90;;;;;;4991796;28;20217;-73
2022/01/07 11:58:37;;;;;;;4.13;3.03;;;5.00;99.90;;;;;;5004726;28;20201;-72
2022/01/07 12:01:04;;;;;;;6.83;3.20;;;5.10;99.90;;;;;;4986460;28;20204;-72
2022/01/07 12:03:40;;;;;;;6.27;2.90;;;5.20;99.90;;;;;;4987340;28;20646;-71
2022/01/07 12:06:26;;;;;;;4.53;3.00;;;5.20;99.90;;;;;;4983692;28;20219;-72
2022/01/07 12:08:59;;;;;;;6.00;2.87;;;5.20;99.90;;;;;;4985926;28;20209;-73
2022/01/07 12:11:53;;;;;;;6.00;3.67;;;5.30;99.90;;;;;;4989176;28;20197;-72
2022/01/07 12:14:31;;;;;;;4.97;3.23;;;5.20;99.90;;;;;;4985729;28;20224;-70
2022/01/07 12:17:00;;;;;;;4.80;3.30;;;5.20;99.90;;;;;;4990446;28;20237;-71
2022/01/07 12:19:52;;;;;;;5.17;3.47;;;5.30;99.90;;;;;;4989112;28;20237;-70
2022/01/07 12:22:20;;;;;;;6.27;3.47;;;5.40;99.90;;;;;;4988864;28;20391;-70
2022/01/07 12:24:49;;;;;;;6.37;3.10;;;5.30;99.90;;;;;;4988974;28;20217;-70
2022/01/07 12:27:20;;;;;;;5.33;3.50;;;5.30;99.90;;;;;;4984351;28;20569;-72
2022/01/07 12:29:56;;;;;;;6.33;4.07;;;5.30;99.90;;;;;;4989989;28;20227;-72
2022/01/07 12:32:37;;;;;;;5.20;3.37;;;5.50;99.90;;;;;;4988874;28;20203;-67
2022/01/07 12:35:07;;;;;;;5.13;3.30;;;5.50;99.90;;;;;;4986460;28;20213;-70
2022/01/07 12:37:34;;;;;;;4.33;3.30;;;5.50;99.90;;;;;;4982577;28;20277;-70
2022/01/07 12:40:04;;;;;;;4.47;3.03;;;5.40;99.90;;;;;;4987645;28;20256;-71
2022/01/07 12:42:38;;;;;;;3.23;2.80;;;5.50;99.90;;;;;;4991068;28;20193;-71
2022/01/07 12:45:05;;;;;;;4.93;3.00;;;5.50;99.90;;;;;;4990410;28;20221;-71
2022/01/07 12:47:32;;;;;;;4.63;2.80;;;5.50;99.90;;;;;;4986639;28;20212;-71
2022/01/07 12:50:02;;;;;;;4.70;3.10;;;5.50;99.90;;;;;;4991750;28;20446;-74
2022/01/07 12:52:34;;;;;;;4.13;3.00;;;5.50;99.90;;;;;;4987547;28;20207;-74
2022/01/07 12:55:33;;;;;;;3.90;2.97;;;5.60;99.90;;;;;;4988754;28;20213;-69
2022/01/07 12:58:03;;;;;;;3.87;2.80;;;5.40;99.90;;;;;;4985549;28;20200;-70
2022/01/07 13:00:32;;;;;;;3.50;2.60;;;5.50;99.90;;;;;;4987516;28;20209;-71
2022/01/07 13:03:06;;;;;;;4.13;2.70;;;5.40;99.90;;;;;;4986242;28;20204;-71
2022/01/07 13:05:37;;;;;;;3.80;2.70;;;5.30;99.90;;;;;;4988567;28;20219;-70
2022/01/07 13:08:12;;;;;;;4.87;2.57;;;5.20;99.90;;;;;;4987085;28;20211;-70
2022/01/07 13:10:41;;;;;;;3.67;2.67;;;5.20;99.90;;;;;;4988055;28;20196;-71